sensor_id;sensor_type;location;lat;lon;timestamp;temperature;humidity
33841;DHT22;20142;28.494;-16.312;2023-10-13T00:00:42;25.30;34.80
33841;DHT22;20142;28.494;-16.312;2023-10-13T00:05:44;25.30;34.80
33841;DHT22;20142;28.494;-16.312;2023-10-13T00:10:47;25.30;35.40
33841;DHT22;20142;28.494;-16.312;2023-10-13T00:15:49;25.40;35.70
33841;DHT22;20142;28.494;-16.312;2023-10-13T00:21:02;25.40;35.70
33841;DHT22;20142;28.494;-16.312;2023-10-13T00:26:13;25.30;35.70
33841;DHT22;20142;28.494;-16.312;2023-10-13T00:31:20;25.30;35.90
33841;DHT22;20142;28.494;-16.312;2023-10-13T00:36:23;25.30;35.90
33841;DHT22;20142;28.494;-16.312;2023-10-13T00:41:24;25.20;35.70
33841;DHT22;20142;28.494;-16.312;2023-10-13T00:46:48;25.10;36.00
33841;DHT22;20142;28.494;-16.312;2023-10-13T00:51:58;25.10;36.30
33841;DHT22;20142;28.494;-16.312;2023-10-13T00:57:00;25.10;36.50
33841;DHT22;20142;28.494;-16.312;2023-10-13T01:02:37;25.10;36.80
33841;DHT22;20142;28.494;-16.312;2023-10-13T01:07:45;25.10;36.70
33841;DHT22;20142;28.494;-16.312;2023-10-13T01:13:04;25.10;36.80
33841;DHT22;20142;28.494;-16.312;2023-10-13T01:18:19;25.00;37.10
33841;DHT22;20142;28.494;-16.312;2023-10-13T01:23:22;24.90;37.10
33841;DHT22;20142;28.494;-16.312;2023-10-13T01:28:31;24.90;36.90
33841;DHT22;20142;28.494;-16.312;2023-10-13T01:33:45;24.90;37.50
33841;DHT22;20142;28.494;-16.312;2023-10-13T01:38:48;24.90;37.70
33841;DHT22;20142;28.494;-16.312;2023-10-13T01:43:52;24.80;37.80
33841;DHT22;20142;28.494;-16.312;2023-10-13T01:48:58;24.80;37.70
33841;DHT22;20142;28.494;-16.312;2023-10-13T01:54:00;24.70;38.00
33841;DHT22;20142;28.494;-16.312;2023-10-13T01:59:04;24.70;37.90
33841;DHT22;20142;28.494;-16.312;2023-10-13T02:04:07;24.60;38.10
33841;DHT22;20142;28.494;-16.312;2023-10-13T02:09:09;24.60;38.20
33841;DHT22;20142;28.494;-16.312;2023-10-13T02:14:40;24.50;38.30
33841;DHT22;20142;28.494;-16.312;2023-10-13T02:19:43;24.50;38.50
33841;DHT22;20142;28.494;-16.312;2023-10-13T02:24:46;24.50;38.70
33841;DHT22;20142;28.494;-16.312;2023-10-13T02:29:53;24.50;38.60
33841;DHT22;20142;28.494;-16.312;2023-10-13T02:34:59;24.40;38.70
33841;DHT22;20142;28.494;-16.312;2023-10-13T02:40:07;24.30;39.10
33841;DHT22;20142;28.494;-16.312;2023-10-13T02:45:10;24.30;39.00
33841;DHT22;20142;28.494;-16.312;2023-10-13T02:50:13;24.30;39.40
33841;DHT22;20142;28.494;-16.312;2023-10-13T02:55:18;24.20;39.60
33841;DHT22;20142;28.494;-16.312;2023-10-13T03:00:26;24.10;39.70
33841;DHT22;20142;28.494;-16.312;2023-10-13T03:05:36;24.10;40.20
33841;DHT22;20142;28.494;-16.312;2023-10-13T03:10:40;24.10;40.70
33841;DHT22;20142;28.494;-16.312;2023-10-13T03:15:48;24.10;40.90
33841;DHT22;20142;28.494;-16.312;2023-10-13T03:20:50;24.00;40.90
33841;DHT22;20142;28.494;-16.312;2023-10-13T03:25:57;23.90;41.10
33841;DHT22;20142;28.494;-16.312;2023-10-13T03:31:05;24.00;41.30
33841;DHT22;20142;28.494;-16.312;2023-10-13T03:36:08;24.00;41.30
33841;DHT22;20142;28.494;-16.312;2023-10-13T03:41:10;24.00;41.40
33841;DHT22;20142;28.494;-16.312;2023-10-13T03:46:21;23.90;41.10
33841;DHT22;20142;28.494;-16.312;2023-10-13T03:51:23;23.80;41.40
33841;DHT22;20142;28.494;-16.312;2023-10-13T03:56:31;23.90;41.40
33841;DHT22;20142;28.494;-16.312;2023-10-13T04:01:42;23.80;41.70
33841;DHT22;20142;28.494;-16.312;2023-10-13T04:06:44;23.80;41.70
33841;DHT22;20142;28.494;-16.312;2023-10-13T04:11:49;23.80;41.30
33841;DHT22;20142;28.494;-16.312;2023-10-13T04:17:10;23.70;41.80
33841;DHT22;20142;28.494;-16.312;2023-10-13T04:22:15;23.70;41.70
33841;DHT22;20142;28.494;-16.312;2023-10-13T04:27:21;23.70;42.00
33841;DHT22;20142;28.494;-16.312;2023-10-13T04:32:45;23.70;41.80
33841;DHT22;20142;28.494;-16.312;2023-10-13T04:38:07;23.70;42.10
33841;DHT22;20142;28.494;-16.312;2023-10-13T04:43:20;23.70;42.10
33841;DHT22;20142;28.494;-16.312;2023-10-13T04:48:34;23.70;42.40
33841;DHT22;20142;28.494;-16.312;2023-10-13T04:53:39;23.70;42.00
33841;DHT22;20142;28.494;-16.312;2023-10-13T04:58:59;23.70;42.40
33841;DHT22;20142;28.494;-16.312;2023-10-13T05:04:19;23.70;42.10
33841;DHT22;20142;28.494;-16.312;2023-10-13T05:09:31;23.70;42.00
33841;DHT22;20142;28.494;-16.312;2023-10-13T05:14:56;23.70;42.30
33841;DHT22;20142;28.494;-16.312;2023-10-13T05:20:16;23.70;42.40
33841;DHT22;20142;28.494;-16.312;2023-10-13T05:25:37;23.60;42.30
33841;DHT22;20142;28.494;-16.312;2023-10-13T05:31:02;23.80;42.90
33841;DHT22;20142;28.494;-16.312;2023-10-13T05:36:22;23.70;42.90
33841;DHT22;20142;28.494;-16.312;2023-10-13T05:41:42;23.80;43.20
33841;DHT22;20142;28.494;-16.312;2023-10-13T05:47:03;23.80;43.00
33841;DHT22;20142;28.494;-16.312;2023-10-13T05:52:34;23.80;42.90
33841;DHT22;20142;28.494;-16.312;2023-10-13T05:57:54;23.70;43.10
33841;DHT22;20142;28.494;-16.312;2023-10-13T06:03:14;23.70;43.60
33841;DHT22;20142;28.494;-16.312;2023-10-13T06:08:35;23.70;43.70
33841;DHT22;20142;28.494;-16.312;2023-10-13T06:13:55;23.70;44.00
33841;DHT22;20142;28.494;-16.312;2023-10-13T06:19:15;23.80;43.90
33841;DHT22;20142;28.494;-16.312;2023-10-13T06:24:34;23.60;44.00
33841;DHT22;20142;28.494;-16.312;2023-10-13T06:29:54;23.70;43.90
33841;DHT22;20142;28.494;-16.312;2023-10-13T06:34:57;23.70;44.10
33841;DHT22;20142;28.494;-16.312;2023-10-13T06:40:03;23.70;44.40
33841;DHT22;20142;28.494;-16.312;2023-10-13T06:45:26;23.70;44.70
33841;DHT22;20142;28.494;-16.312;2023-10-13T06:50:29;23.50;45.60
33841;DHT22;20142;28.494;-16.312;2023-10-13T06:55:37;23.60;45.70
33841;DHT22;20142;28.494;-16.312;2023-10-13T07:00:41;23.60;45.90
33841;DHT22;20142;28.494;-16.312;2023-10-13T07:05:53;23.70;45.30
33841;DHT22;20142;28.494;-16.312;2023-10-13T07:11:00;23.60;45.20
33841;DHT22;20142;28.494;-16.312;2023-10-13T07:16:09;23.60;45.70
33841;DHT22;20142;28.494;-16.312;2023-10-13T07:21:13;23.60;45.70
33841;DHT22;20142;28.494;-16.312;2023-10-13T07:26:15;23.60;45.70
33841;DHT22;20142;28.494;-16.312;2023-10-13T07:31:17;23.60;44.90
33841;DHT22;20142;28.494;-16.312;2023-10-13T07:36:20;23.80;45.20
33841;DHT22;20142;28.494;-16.312;2023-10-13T07:41:25;23.80;44.60
33841;DHT22;20142;28.494;-16.312;2023-10-13T07:46:31;23.90;44.70
33841;DHT22;20142;28.494;-16.312;2023-10-13T07:51:36;23.90;44.70
33841;DHT22;20142;28.494;-16.312;2023-10-13T07:56:50;24.00;44.80
33841;DHT22;20142;28.494;-16.312;2023-10-13T08:01:52;24.10;44.30
33841;DHT22;20142;28.494;-16.312;2023-10-13T08:07:13;24.30;44.10
33841;DHT22;20142;28.494;-16.312;2023-10-13T08:12:15;24.30;44.30
33841;DHT22;20142;28.494;-16.312;2023-10-13T08:17:22;24.50;44.20
33841;DHT22;20142;28.494;-16.312;2023-10-13T08:22:32;24.80;43.90
33841;DHT22;20142;28.494;-16.312;2023-10-13T08:27:39;25.20;42.90
33841;DHT22;20142;28.494;-16.312;2023-10-13T08:32:50;25.50;42.30
33841;DHT22;20142;28.494;-16.312;2023-10-13T08:38:01;25.80;41.80
33841;DHT22;20142;28.494;-16.312;2023-10-13T08:43:14;26.10;41.20
33841;DHT22;20142;28.494;-16.312;2023-10-13T08:48:18;26.30;40.90
33841;DHT22;20142;28.494;-16.312;2023-10-13T08:53:26;26.50;39.60
33841;DHT22;20142;28.494;-16.312;2023-10-13T08:58:35;26.80;38.80
33841;DHT22;20142;28.494;-16.312;2023-10-13T09:03:57;27.00;38.50
33841;DHT22;20142;28.494;-16.312;2023-10-13T09:09:19;27.30;37.90
33841;DHT22;20142;28.494;-16.312;2023-10-13T09:14:37;27.80;37.20
33841;DHT22;20142;28.494;-16.312;2023-10-13T09:19:51;28.10;36.80
33841;DHT22;20142;28.494;-16.312;2023-10-13T09:24:59;28.40;36.50
33841;DHT22;20142;28.494;-16.312;2023-10-13T09:30:02;28.50;36.20
33841;DHT22;20142;28.494;-16.312;2023-10-13T09:35:20;28.80;35.80
33841;DHT22;20142;28.494;-16.312;2023-10-13T09:40:28;29.10;35.40
33841;DHT22;20142;28.494;-16.312;2023-10-13T09:45:35;29.40;33.80
33841;DHT22;20142;28.494;-16.312;2023-10-13T09:51:02;29.70;33.80
33841;DHT22;20142;28.494;-16.312;2023-10-13T09:56:20;29.80;33.60
33841;DHT22;20142;28.494;-16.312;2023-10-13T10:01:29;30.10;33.10
33841;DHT22;20142;28.494;-16.312;2023-10-13T10:06:33;30.30;33.00
33841;DHT22;20142;28.494;-16.312;2023-10-13T10:17:27;31.20;32.60
33841;DHT22;20142;28.494;-16.312;2023-10-13T10:22:32;31.10;32.20
33841;DHT22;20142;28.494;-16.312;2023-10-13T10:27:34;31.50;32.30
33841;DHT22;20142;28.494;-16.312;2023-10-13T10:32:37;31.80;32.00
33841;DHT22;20142;28.494;-16.312;2023-10-13T10:37:43;31.30;32.10
33841;DHT22;20142;28.494;-16.312;2023-10-13T10:42:51;30.90;32.00
33841;DHT22;20142;28.494;-16.312;2023-10-13T10:47:56;30.70;32.10
33841;DHT22;20142;28.494;-16.312;2023-10-13T10:52:59;30.50;32.50
33841;DHT22;20142;28.494;-16.312;2023-10-13T10:58:03;30.30;32.70
33841;DHT22;20142;28.494;-16.312;2023-10-13T11:03:07;30.10;32.80
33841;DHT22;20142;28.494;-16.312;2023-10-13T11:08:23;30.30;33.40
33841;DHT22;20142;28.494;-16.312;2023-10-13T11:13:44;30.20;33.60
33841;DHT22;20142;28.494;-16.312;2023-10-13T11:19:04;30.50;33.90
33841;DHT22;20142;28.494;-16.312;2023-10-13T11:24:06;30.60;34.00
33841;DHT22;20142;28.494;-16.312;2023-10-13T11:29:12;30.70;34.00
33841;DHT22;20142;28.494;-16.312;2023-10-13T11:34:14;30.70;33.80
33841;DHT22;20142;28.494;-16.312;2023-10-13T11:39:18;30.90;34.10
33841;DHT22;20142;28.494;-16.312;2023-10-13T11:44:25;31.00;33.70
33841;DHT22;20142;28.494;-16.312;2023-10-13T11:49:32;30.90;34.10
33841;DHT22;20142;28.494;-16.312;2023-10-13T11:54:35;31.10;33.80
33841;DHT22;20142;28.494;-16.312;2023-10-13T11:59:42;31.10;33.80
33841;DHT22;20142;28.494;-16.312;2023-10-13T12:04:54;31.20;34.00
33841;DHT22;20142;28.494;-16.312;2023-10-13T12:09:58;31.30;33.50
33841;DHT22;20142;28.494;-16.312;2023-10-13T12:15:00;31.40;33.70
33841;DHT22;20142;28.494;-16.312;2023-10-13T12:20:10;31.40;33.30
33841;DHT22;20142;28.494;-16.312;2023-10-13T12:25:19;31.60;33.40
33841;DHT22;20142;28.494;-16.312;2023-10-13T12:30:35;31.60;33.40
33841;DHT22;20142;28.494;-16.312;2023-10-13T12:35:59;31.60;33.20
33841;DHT22;20142;28.494;-16.312;2023-10-13T12:41:18;31.70;33.10
33841;DHT22;20142;28.494;-16.312;2023-10-13T12:46:39;31.80;33.10
33841;DHT22;20142;28.494;-16.312;2023-10-13T12:51:59;31.80;32.70
33841;DHT22;20142;28.494;-16.312;2023-10-13T12:57:01;31.80;33.40
33841;DHT22;20142;28.494;-16.312;2023-10-13T13:02:03;31.80;32.20
33841;DHT22;20142;28.494;-16.312;2023-10-13T13:07:08;31.70;33.30
33841;DHT22;20142;28.494;-16.312;2023-10-13T13:12:14;31.70;33.10
33841;DHT22;20142;28.494;-16.312;2023-10-13T13:17:16;31.60;32.90
33841;DHT22;20142;28.494;-16.312;2023-10-13T13:22:17;31.80;33.70
33841;DHT22;20142;28.494;-16.312;2023-10-13T13:27:19;31.70;33.20
33841;DHT22;20142;28.494;-16.312;2023-10-13T13:32:23;31.70;33.40
33841;DHT22;20142;28.494;-16.312;2023-10-13T13:37:25;31.80;33.90
33841;DHT22;20142;28.494;-16.312;2023-10-13T13:42:30;31.70;33.90
33841;DHT22;20142;28.494;-16.312;2023-10-13T13:47:37;31.60;34.00
33841;DHT22;20142;28.494;-16.312;2023-10-13T13:52:39;31.70;34.10
33841;DHT22;20142;28.494;-16.312;2023-10-13T13:57:47;31.70;34.50
33841;DHT22;20142;28.494;-16.312;2023-10-13T14:02:51;31.90;33.60
33841;DHT22;20142;28.494;-16.312;2023-10-13T14:07:54;32.00;33.40
33841;DHT22;20142;28.494;-16.312;2023-10-13T14:12:57;32.10;32.90
33841;DHT22;20142;28.494;-16.312;2023-10-13T14:18:07;32.10;32.70
33841;DHT22;20142;28.494;-16.312;2023-10-13T14:23:15;32.40;32.80
33841;DHT22;20142;28.494;-16.312;2023-10-13T14:28:17;32.80;32.60
33841;DHT22;20142;28.494;-16.312;2023-10-13T14:33:19;36.30;31.50
33841;DHT22;20142;28.494;-16.312;2023-10-13T14:38:22;41.00;28.90
33841;DHT22;20142;28.494;-16.312;2023-10-13T14:43:24;44.70;27.00
33841;DHT22;20142;28.494;-16.312;2023-10-13T14:48:29;47.70;25.80
33841;DHT22;20142;28.494;-16.312;2023-10-13T14:53:31;49.40;25.10
33841;DHT22;20142;28.494;-16.312;2023-10-13T14:58:33;50.30;24.10
33841;DHT22;20142;28.494;-16.312;2023-10-13T15:03:35;51.40;23.40
33841;DHT22;20142;28.494;-16.312;2023-10-13T15:08:39;52.40;22.50
33841;DHT22;20142;28.494;-16.312;2023-10-13T15:13:47;53.20;21.80
33841;DHT22;20142;28.494;-16.312;2023-10-13T15:18:53;54.10;20.90
33841;DHT22;20142;28.494;-16.312;2023-10-13T15:23:55;54.70;20.20
33841;DHT22;20142;28.494;-16.312;2023-10-13T15:29:04;55.10;19.80
33841;DHT22;20142;28.494;-16.312;2023-10-13T15:34:13;54.80;19.90
33841;DHT22;20142;28.494;-16.312;2023-10-13T15:39:14;55.30;19.20
33841;DHT22;20142;28.494;-16.312;2023-10-13T15:44:16;56.10;18.10
33841;DHT22;20142;28.494;-16.312;2023-10-13T15:49:18;56.90;17.80
33841;DHT22;20142;28.494;-16.312;2023-10-13T15:54:20;57.00;17.30
33841;DHT22;20142;28.494;-16.312;2023-10-13T15:59:22;56.80;17.00
33841;DHT22;20142;28.494;-16.312;2023-10-13T16:04:26;56.10;17.10
33841;DHT22;20142;28.494;-16.312;2023-10-13T16:09:28;56.50;16.70
33841;DHT22;20142;28.494;-16.312;2023-10-13T16:14:30;57.50;16.20
33841;DHT22;20142;28.494;-16.312;2023-10-13T16:19:36;56.80;16.20
33841;DHT22;20142;28.494;-16.312;2023-10-13T16:24:38;56.70;16.20
33841;DHT22;20142;28.494;-16.312;2023-10-13T16:29:40;57.30;15.60
33841;DHT22;20142;28.494;-16.312;2023-10-13T16:34:43;58.10;15.80
33841;DHT22;20142;28.494;-16.312;2023-10-13T16:39:45;57.60;15.40
33841;DHT22;20142;28.494;-16.312;2023-10-13T16:44:47;57.80;15.20
33841;DHT22;20142;28.494;-16.312;2023-10-13T16:49:49;56.70;15.30
33841;DHT22;20142;28.494;-16.312;2023-10-13T16:54:51;56.00;15.20
33841;DHT22;20142;28.494;-16.312;2023-10-13T16:59:54;55.60;15.40
33841;DHT22;20142;28.494;-16.312;2023-10-13T17:04:56;55.50;15.60
33841;DHT22;20142;28.494;-16.312;2023-10-13T17:09:59;55.60;15.30
33841;DHT22;20142;28.494;-16.312;2023-10-13T17:15:02;55.40;15.50
33841;DHT22;20142;28.494;-16.312;2023-10-13T17:20:15;55.50;15.50
33841;DHT22;20142;28.494;-16.312;2023-10-13T17:25:20;55.00;14.80
33841;DHT22;20142;28.494;-16.312;2023-10-13T17:30:22;53.00;14.70
33841;DHT22;20142;28.494;-16.312;2023-10-13T17:35:24;51.60;14.40
33841;DHT22;20142;28.494;-16.312;2023-10-13T17:40:26;49.00;14.50
33841;DHT22;20142;28.494;-16.312;2023-10-13T17:45:28;47.00;14.60
33841;DHT22;20142;28.494;-16.312;2023-10-13T17:50:32;44.40;14.90
33841;DHT22;20142;28.494;-16.312;2023-10-13T17:55:38;42.90;15.00
33841;DHT22;20142;28.494;-16.312;2023-10-13T18:00:40;42.60;15.70
33841;DHT22;20142;28.494;-16.312;2023-10-13T18:05:44;39.60;16.00
33841;DHT22;20142;28.494;-16.312;2023-10-13T18:10:52;37.50;16.60
33841;DHT22;20142;28.494;-16.312;2023-10-13T18:15:54;36.20;17.00
33841;DHT22;20142;28.494;-16.312;2023-10-13T18:21:02;35.50;17.50
33841;DHT22;20142;28.494;-16.312;2023-10-13T18:26:04;34.90;17.80
33841;DHT22;20142;28.494;-16.312;2023-10-13T18:31:06;34.40;18.50
33841;DHT22;20142;28.494;-16.312;2023-10-13T18:36:16;33.80;18.90
33841;DHT22;20142;28.494;-16.312;2023-10-13T18:41:19;33.70;19.00
33841;DHT22;20142;28.494;-16.312;2023-10-13T18:46:23;33.40;19.50
33841;DHT22;20142;28.494;-16.312;2023-10-13T18:51:28;33.30;19.70
33841;DHT22;20142;28.494;-16.312;2023-10-13T18:56:33;33.00;19.90
33841;DHT22;20142;28.494;-16.312;2023-10-13T19:01:35;32.80;19.80
33841;DHT22;20142;28.494;-16.312;2023-10-13T19:06:38;32.60;20.10
33841;DHT22;20142;28.494;-16.312;2023-10-13T19:11:41;32.30;20.00
33841;DHT22;20142;28.494;-16.312;2023-10-13T19:16:46;31.90;20.20
33841;DHT22;20142;28.494;-16.312;2023-10-13T19:21:48;31.50;20.90
33841;DHT22;20142;28.494;-16.312;2023-10-13T19:26:50;31.00;21.10
33841;DHT22;20142;28.494;-16.312;2023-10-13T19:31:54;30.90;21.40
33841;DHT22;20142;28.494;-16.312;2023-10-13T19:36:56;30.70;22.00
33841;DHT22;20142;28.494;-16.312;2023-10-13T19:42:04;30.40;22.20
33841;DHT22;20142;28.494;-16.312;2023-10-13T19:47:08;30.10;22.70
33841;DHT22;20142;28.494;-16.312;2023-10-13T19:52:15;29.70;23.00
33841;DHT22;20142;28.494;-16.312;2023-10-13T19:57:18;29.60;23.20
33841;DHT22;20142;28.494;-16.312;2023-10-13T20:02:20;29.60;23.50
33841;DHT22;20142;28.494;-16.312;2023-10-13T20:07:22;29.90;24.10
33841;DHT22;20142;28.494;-16.312;2023-10-13T20:12:24;30.20;24.70
33841;DHT22;20142;28.494;-16.312;2023-10-13T20:17:26;30.40;25.20
33841;DHT22;20142;28.494;-16.312;2023-10-13T20:22:30;30.50;25.60
33841;DHT22;20142;28.494;-16.312;2023-10-13T20:27:31;30.50;25.70
33841;DHT22;20142;28.494;-16.312;2023-10-13T20:32:33;30.60;26.30
33841;DHT22;20142;28.494;-16.312;2023-10-13T20:37:35;30.50;26.60
33841;DHT22;20142;28.494;-16.312;2023-10-13T20:42:37;30.40;26.60
33841;DHT22;20142;28.494;-16.312;2023-10-13T20:47:39;30.50;26.80
33841;DHT22;20142;28.494;-16.312;2023-10-13T20:52:42;30.40;27.00
33841;DHT22;20142;28.494;-16.312;2023-10-13T20:57:44;30.20;27.40
33841;DHT22;20142;28.494;-16.312;2023-10-13T21:02:53;30.20;28.10
33841;DHT22;20142;28.494;-16.312;2023-10-13T21:07:56;30.20;28.30
33841;DHT22;20142;28.494;-16.312;2023-10-13T21:12:57;30.00;28.70
33841;DHT22;20142;28.494;-16.312;2023-10-13T21:17:59;30.00;29.10
33841;DHT22;20142;28.494;-16.312;2023-10-13T21:23:01;30.00;29.40
33841;DHT22;20142;28.494;-16.312;2023-10-13T21:28:03;29.90;30.10
33841;DHT22;20142;28.494;-16.312;2023-10-13T21:33:05;29.80;30.40
33841;DHT22;20142;28.494;-16.312;2023-10-13T21:38:09;29.80;30.60
33841;DHT22;20142;28.494;-16.312;2023-10-13T21:43:15;29.60;31.10
33841;DHT22;20142;28.494;-16.312;2023-10-13T21:48:17;29.50;31.40
33841;DHT22;20142;28.494;-16.312;2023-10-13T21:53:19;29.50;31.90
33841;DHT22;20142;28.494;-16.312;2023-10-13T21:58:21;29.50;32.00
33841;DHT22;20142;28.494;-16.312;2023-10-13T22:03:26;29.40;32.00
33841;DHT22;20142;28.494;-16.312;2023-10-13T22:08:30;29.30;32.40
33841;DHT22;20142;28.494;-16.312;2023-10-13T22:13:33;29.30;32.90
33841;DHT22;20142;28.494;-16.312;2023-10-13T22:18:41;29.20;32.80
33841;DHT22;20142;28.494;-16.312;2023-10-13T22:23:44;29.00;33.70
33841;DHT22;20142;28.494;-16.312;2023-10-13T22:28:47;29.00;33.90
33841;DHT22;20142;28.494;-16.312;2023-10-13T22:33:52;28.90;33.90
33841;DHT22;20142;28.494;-16.312;2023-10-13T22:38:56;28.80;34.40
33841;DHT22;20142;28.494;-16.312;2023-10-13T22:43:59;28.80;34.50
33841;DHT22;20142;28.494;-16.312;2023-10-13T22:49:05;28.60;34.80
33841;DHT22;20142;28.494;-16.312;2023-10-13T22:54:06;28.60;34.50
33841;DHT22;20142;28.494;-16.312;2023-10-13T22:59:11;28.40;34.00
33841;DHT22;20142;28.494;-16.312;2023-10-13T23:04:13;28.20;34.10
33841;DHT22;20142;28.494;-16.312;2023-10-13T23:09:18;28.10;34.40
33841;DHT22;20142;28.494;-16.312;2023-10-13T23:14:26;27.90;34.10
33841;DHT22;20142;28.494;-16.312;2023-10-13T23:19:28;27.90;34.00
33841;DHT22;20142;28.494;-16.312;2023-10-13T23:24:35;27.70;34.00
33841;DHT22;20142;28.494;-16.312;2023-10-13T23:29:38;27.70;33.90
33841;DHT22;20142;28.494;-16.312;2023-10-13T23:34:40;27.60;34.10
33841;DHT22;20142;28.494;-16.312;2023-10-13T23:39:41;27.40;34.00
33841;DHT22;20142;28.494;-16.312;2023-10-13T23:44:44;27.40;34.30
33841;DHT22;20142;28.494;-16.312;2023-10-13T23:49:47;27.30;34.20
33841;DHT22;20142;28.494;-16.312;2023-10-13T23:54:49;27.20;34.50
33841;DHT22;20142;28.494;-16.312;2023-10-13T23:59:55;27.10;34.20
